LTBR/YEI METAR and TAF weather

Enter ICAO airport designator
Station Type Date Time Source
LTBR METAR 2021/04/17 03:20 UTC NOAA

LTBR 170320Z 35003KT 8000 SCT035 BKN100 09/08 Q1016 TEMPO 4000 BR


Station Type Date Time Source
LTBR Decoded METAR 2021/04/17 03:20 UTC NOAA

Bursa / Yenisehir, Mil-Civ, Turkey (LTBR) 40-15-19N 029-33-45E
Apr 16, 2021 - 11:20 PM EDT / 2021.04.17 0320 UTC
Wind: from the N (350 degrees) at 3 MPH (3 KT):0
Visibility: 4 mile(s):0
Sky conditions: mostly cloudy
Temperature: 48 F (9 C)
Dew Point: 46 F (8 C)
Relative Humidity: 93%
Pressure (altimeter): 30.00 in. Hg (1016 hPa)
ob: LTBR 170320Z 35003KT 8000 SCT035 BKN100 09/08 Q1016 TEMPO 4000 BR
cycle: 3

Station Type Date Time Source
LTBR TAF 2021/04/16 18:03 UTC NOAA

TAF LTBR 161640Z 1618/1718 VRB02KT 9999 SCT035 BKN100 PROB30 1621/1624 -SHRA PROB40
TEMPO 1702/1706 4000 -SHRA BR BKN025 BKN090
BECMG 1709/1711 05012KT
BECMG 1715/1718 VRB02KT

Example: see airport list